Time;durP1;ratioP1;P1;durP2;ratioP2;P2;SDS_P1;SDS_P2;PMS_P1;PMS_P2;Temp;Humidity;BMP_temperature;BMP_pressure;BME280_temperature;BME280_humidity;BME280_pressure;Samples;Min_cycle;Max_cycle;Signal;HPM_P1;HPM_P2
2023/06/02 00:01:31;;;;;;;7.47;6.53;;;;;;;13.12;100.00;100212.63;5015446;28;20559;-81
2023/06/02 00:03:59;;;;;;;10.17;6.60;;;;;;;13.03;100.00;100209.69;5018084;28;20208;-82
2023/06/02 00:06:26;;;;;;;7.97;6.57;;;;;;;13.01;100.00;100214.13;5013622;28;20179;-82
2023/06/02 00:08:52;;;;;;;7.97;6.17;;;;;;;12.96;100.00;100207.59;5012429;28;20195;-83
2023/06/02 00:11:19;;;;;;;8.90;7.30;;;;;;;12.84;100.00;100204.03;5013232;28;20233;-83
2023/06/02 00:13:44;;;;;;;8.20;6.77;;;;;;;12.81;100.00;100209.38;5012154;28;20210;-81
2023/06/02 00:16:10;;;;;;;8.67;7.37;;;;;;;12.76;100.00;100207.06;5013354;28;20270;-80
2023/06/02 00:18:39;;;;;;;7.73;6.73;;;;;;;12.73;100.00;100209.84;5013783;28;20181;-81
2023/06/02 00:21:06;;;;;;;10.00;7.10;;;;;;;12.63;100.00;100207.00;5005315;28;20260;-82
2023/06/02 00:23:32;;;;;;;8.23;7.23;;;;;;;12.58;100.00;100196.97;5012455;28;20193;-83
2023/06/02 00:25:58;;;;;;;8.70;7.07;;;;;;;12.61;100.00;100198.53;5012881;28;20213;-83
2023/06/02 00:28:24;;;;;;;7.83;7.13;;;;;;;12.56;100.00;100206.53;5011261;28;20222;-80
2023/06/02 00:30:49;;;;;;;9.67;6.77;;;;;;;12.47;100.00;100212.28;4997610;28;20234;-81
2023/06/02 00:33:14;;;;;;;8.67;6.73;;;;;;;12.40;100.00;100210.97;5022717;28;20176;-82
2023/06/02 00:35:40;;;;;;;7.30;6.60;;;;;;;12.40;100.00;100208.41;5012018;28;20216;-82
2023/06/02 00:38:05;;;;;;;7.67;6.23;;;;;;;12.33;100.00;100210.53;5013033;28;20190;-82
2023/06/02 00:40:34;;;;;;;11.90;6.77;;;;;;;12.27;100.00;100213.47;5004921;28;20302;-83
2023/06/02 00:43:00;;;;;;;8.33;6.47;;;;;;;12.24;100.00;100209.34;5012050;28;20183;-82
2023/06/02 00:45:25;;;;;;;8.93;6.83;;;;;;;12.25;100.00;100205.00;5013105;28;20178;-82
2023/06/02 00:47:51;;;;;;;8.53;6.23;;;;;;;12.22;100.00;100218.09;5013227;28;20183;-83
2023/06/02 00:50:17;;;;;;;7.23;6.33;;;;;;;12.21;100.00;100212.09;5003490;28;20171;-84
2023/06/02 00:52:44;;;;;;;7.90;5.87;;;;;;;12.18;100.00;100222.59;5025331;28;20187;-83
2023/06/02 00:55:09;;;;;;;7.23;6.50;;;;;;;12.11;100.00;100213.56;5011154;28;20197;-82
2023/06/02 00:57:40;;;;;;;8.33;6.37;;;;;;;12.05;100.00;100225.06;5013034;28;20587;-82
2023/06/02 01:00:07;;;;;;;7.60;6.90;;;;;;;12.02;100.00;100219.25;5001729;28;20233;-82
2023/06/02 01:02:32;;;;;;;6.83;6.23;;;;;;;11.98;100.00;100217.78;5011397;28;20555;-82
2023/06/02 01:05:00;;;;;;;7.63;6.50;;;;;;;12.05;100.00;100219.09;5012669;28;20175;-77
2023/06/02 01:07:27;;;;;;;11.40;5.67;;;;;;;11.98;100.00;100222.94;5011408;28;20189;-82
2023/06/02 01:09:55;;;;;;;6.40;5.83;;;;;;;11.92;100.00;100218.91;5011165;28;20182;-82
2023/06/02 01:12:21;;;;;;;6.73;5.83;;;;;;;12.04;100.00;100222.56;5001968;28;20257;-82
2023/06/02 01:14:47;;;;;;;7.00;6.30;;;;;;;11.91;100.00;100222.44;5012667;28;20547;-83
2023/06/02 01:17:13;;;;;;;8.20;6.40;;;;;;;11.78;100.00;100218.00;5011113;28;20178;-83
2023/06/02 01:19:40;;;;;;;6.30;5.70;;;;;;;11.71;100.00;100224.41;5012493;28;20665;-83
2023/06/02 01:22:09;;;;;;;8.70;6.13;;;;;;;11.68;100.00;100232.31;5003813;28;20261;-82
2023/06/02 01:24:38;;;;;;;6.83;6.20;;;;;;;11.70;100.00;100230.47;5027602;28;20190;-83
2023/06/02 01:27:08;;;;;;;9.33;6.40;;;;;;;11.59;100.00;100228.50;5012072;28;20175;-84
2023/06/02 01:29:35;;;;;;;6.90;6.30;;;;;;;11.57;100.00;100232.94;5011254;28;20273;-83
2023/06/02 01:32:14;;;;;;;5.87;5.37;;;;;;;11.62;100.00;100233.50;5019173;28;20672;-84
2023/06/02 01:34:55;;;;;;;8.80;6.10;;;;;;;11.63;100.00;100230.00;5011051;28;20194;-83
2023/06/02 01:37:21;;;;;;;7.10;6.40;;;;;;;11.65;100.00;100235.06;5012263;28;20192;-82
2023/06/02 01:39:47;;;;;;;12.30;7.07;;;;;;;11.60;100.00;100229.34;5021817;28;20742;-83
2023/06/02 01:42:15;;;;;;;6.63;5.90;;;;;;;11.61;100.00;100238.75;5002364;28;20589;-83
2023/06/02 01:44:42;;;;;;;7.13;6.50;;;;;;;11.68;100.00;100236.66;5010897;28;20626;-82
2023/06/02 01:47:08;;;;;;;7.17;6.50;;;;;;;11.49;100.00;100242.03;5010214;28;20183;-82
2023/06/02 01:49:33;;;;;;;7.73;6.60;;;;;;;11.35;100.00;100238.47;5008367;28;20187;-82
2023/06/02 01:51:58;;;;;;;7.17;6.47;;;;;;;11.30;100.00;100236.13;5004417;28;20257;-83
2023/06/02 01:54:24;;;;;;;8.07;6.90;;;;;;;11.29;100.00;100239.63;5011623;28;20279;-80
2023/06/02 01:56:49;;;;;;;6.90;6.30;;;;;;;11.26;100.00;100239.81;5011729;28;20182;-81
2023/06/02 01:59:16;;;;;;;7.40;6.63;;;;;;;11.25;100.00;100239.88;5011776;28;20676;-81
2023/06/02 02:01:42;;;;;;;7.67;6.87;;;;;;;11.28;100.00;100250.84;5014608;28;20230;-81
2023/06/02 02:04:07;;;;;;;7.60;6.70;;;;;;;11.32;100.00;100241.19;5010287;28;20657;-81
2023/06/02 02:06:34;;;;;;;7.17;6.43;;;;;;;11.24;100.00;100235.66;5010479;28;20212;-81
2023/06/02 02:09:00;;;;;;;7.00;6.30;;;;;;;11.16;100.00;100236.06;5010601;28;20190;-81
2023/06/02 02:11:29;;;;;;;7.63;6.93;;;;;;;11.10;100.00;100239.81;5012384;28;20221;-80
2023/06/02 02:13:55;;;;;;;9.43;7.93;;;;;;;11.11;100.00;100240.63;5015853;28;20183;-81
2023/06/02 02:16:20;;;;;;;10.10;7.53;;;;;;;11.09;100.00;100239.91;5009963;28;20185;-81
2023/06/02 02:18:46;;;;;;;8.13;7.33;;;;;;;11.13;100.00;100229.34;5010326;28;20178;-82
2023/06/02 02:21:15;;;;;;;14.97;8.20;;;;;;;11.08;100.00;100233.09;5003468;28;20597;-82
2023/06/02 02:23:40;;;;;;;11.17;7.00;;;;;;;11.13;100.00;100231.91;5010645;28;20642;-82
2023/06/02 02:26:06;;;;;;;10.17;7.77;;;;;;;11.11;100.00;100225.19;5011022;28;20187;-82
2023/06/02 02:28:31;;;;;;;11.10;7.27;;;;;;;11.08;100.00;100233.91;4995684;28;20177;-82
2023/06/02 02:30:57;;;;;;;8.63;7.70;;;;;;;11.09;100.00;100232.19;4997496;28;20225;-83
2023/06/02 02:33:22;;;;;;;10.03;7.73;;;;;;;11.07;100.00;100231.41;5010362;28;20205;-83
2023/06/02 02:35:48;;;;;;;8.83;7.80;;;;;;;11.06;100.00;100232.34;5011559;28;20214;-82
2023/06/02 02:38:13;;;;;;;12.90;8.47;;;;;;;11.02;100.00;100230.84;5011168;28;20183;-81
2023/06/02 02:40:38;;;;;;;11.03;7.47;;;;;;;10.97;100.00;100231.09;5006323;28;20240;-81
2023/06/02 02:43:03;;;;;;;8.83;7.93;;;;;;;10.95;100.00;100227.75;5022131;28;20553;-82
2023/06/02 02:45:29;;;;;;;17.47;8.53;;;;;;;10.94;100.00;100242.38;5010918;28;20186;-81
2023/06/02 02:47:54;;;;;;;11.67;8.40;;;;;;;10.97;100.00;100238.81;5011142;28;20194;-80
2023/06/02 02:50:19;;;;;;;10.17;7.60;;;;;;;10.95;100.00;100245.78;5003610;28;20189;-81
2023/06/02 02:52:45;;;;;;;13.10;8.03;;;;;;;10.92;100.00;100249.34;5014058;28;20639;-82
2023/06/02 02:55:10;;;;;;;11.33;8.37;;;;;;;10.90;100.00;100251.19;5008017;28;20290;-81
2023/06/02 02:57:36;;;;;;;9.30;7.17;;;;;;;10.90;100.00;100247.78;5011549;28;20183;-82
2023/06/02 03:00:04;;;;;;;10.57;7.77;;;;;;;10.88;100.00;100250.44;5011301;28;20206;-78
2023/06/02 03:02:30;;;;;;;13.83;9.10;;;;;;;10.90;100.00;100248.63;5003889;28;20222;-81
2023/06/02 03:04:56;;;;;;;8.90;8.00;;;;;;;10.89;100.00;100249.53;5015358;28;20653;-81
2023/06/02 03:07:24;;;;;;;11.13;7.73;;;;;;;10.93;100.00;100253.59;5014751;28;20178;-81
2023/06/02 03:09:50;;;;;;;16.23;8.47;;;;;;;10.88;100.00;100254.72;5014875;28;20646;-81
2023/06/02 03:12:15;;;;;;;9.83;7.70;;;;;;;10.84;100.00;100254.09;5019817;28;20236;-81
2023/06/02 03:14:40;;;;;;;11.90;8.33;;;;;;;10.80;100.00;100256.00;5014801;28;20193;-81
2023/06/02 03:17:06;;;;;;;9.67;7.83;;;;;;;10.77;100.00;100257.91;5019582;28;20712;-82
2023/06/02 03:19:31;;;;;;;10.20;7.93;;;;;;;10.76;100.00;100253.66;5013578;28;20565;-81
2023/06/02 03:21:56;;;;;;;11.77;8.13;;;;;;;10.76;100.00;100257.03;5018786;28;20253;-80
2023/06/02 03:24:22;;;;;;;11.33;7.67;;;;;;;10.79;100.00;100263.78;5015550;28;20193;-81
2023/06/02 03:26:48;;;;;;;8.60;7.57;;;;;;;10.75;100.00;100254.56;5014329;28;20182;-82
2023/06/02 03:29:14;;;;;;;8.97;7.47;;;;;;;10.75;100.00;100262.28;5005646;28;20219;-82
2023/06/02 03:31:41;;;;;;;10.33;8.27;;;;;;;10.78;100.00;100262.13;4978100;28;20374;-79
2023/06/02 03:34:06;;;;;;;11.67;7.30;;;;;;;10.89;100.00;100262.41;5014056;28;20179;-80
2023/06/02 03:36:35;;;;;;;10.77;7.63;;;;;;;10.87;100.00;100258.25;5014165;28;20232;-82
2023/06/02 03:39:04;;;;;;;10.83;7.90;;;;;;;10.85;100.00;100263.44;5012975;28;20174;-82
2023/06/02 03:41:29;;;;;;;13.13;8.23;;;;;;;10.85;100.00;100270.34;5006238;28;20221;-81
2023/06/02 03:43:54;;;;;;;11.30;8.00;;;;;;;10.81;100.00;100265.34;5018184;28;20194;-80
2023/06/02 03:46:19;;;;;;;10.17;7.87;;;;;;;10.87;100.00;100266.78;5014377;28;20174;-81
2023/06/02 03:48:45;;;;;;;11.67;8.03;;;;;;;10.93;100.00;100265.63;5014435;28;20199;-81
2023/06/02 03:51:10;;;;;;;10.33;7.57;;;;;;;11.01;100.00;100276.34;5012963;28;20600;-81
2023/06/02 03:53:35;;;;;;;12.03;7.30;;;;;;;11.01;100.00;100273.75;5020786;28;20182;-82
2023/06/02 03:56:00;;;;;;;11.93;7.70;;;;;;;10.93;100.00;100271.59;5013339;28;20302;-81
2023/06/02 03:58:26;;;;;;;15.70;7.23;;;;;;;11.01;100.00;100272.94;5013849;28;20696;-81
2023/06/02 04:00:51;;;;;;;12.90;7.97;;;;;;;10.98;100.00;100268.78;5010463;28;20238;-82
2023/06/02 04:03:16;;;;;;;10.03;7.80;;;;;;;10.96;100.00;100276.59;5023223;28;20193;-82
2023/06/02 04:05:41;;;;;;;9.30;7.80;;;;;;;11.05;100.00;100279.56;5012230;28;20657;-82
2023/06/02 04:08:07;;;;;;;11.97;7.87;;;;;;;11.11;100.00;100282.66;5013880;28;20174;-81
2023/06/02 04:10:33;;;;;;;11.03;8.47;;;;;;;11.22;100.00;100286.41;5007448;28;20275;-82
2023/06/02 04:12:58;;;;;;;9.37;8.00;;;;;;;11.21;100.00;100293.31;5012407;28;20219;-81
2023/06/02 04:15:24;;;;;;;9.33;7.30;;;;;;;11.09;100.00;100296.53;5012087;28;20245;-82
2023/06/02 04:17:49;;;;;;;11.23;7.53;;;;;;;11.09;100.00;100294.78;5013834;28;20193;-80
2023/06/02 04:20:15;;;;;;;9.67;7.67;;;;;;;11.07;100.00;100296.59;5003364;28;20669;-82
2023/06/02 04:22:40;;;;;;;11.97;7.17;;;;;;;11.07;100.00;100298.34;5027318;28;20182;-81
2023/06/02 04:25:06;;;;;;;9.53;7.30;;;;;;;11.19;100.00;100304.56;5013144;28;20187;-80
2023/06/02 04:27:31;;;;;;;12.03;7.70;;;;;;;11.12;100.00;100301.50;5013865;28;20182;-81
2023/06/02 04:29:58;;;;;;;11.47;8.00;;;;;;;11.22;100.00;100304.41;4998786;28;20215;-83
2023/06/02 04:32:23;;;;;;;10.23;7.33;;;;;;;11.26;100.00;100304.19;5002837;28;20233;-82
2023/06/02 04:34:50;;;;;;;11.10;7.57;;;;;;;11.24;100.00;100305.19;5012221;28;20914;-82
2023/06/02 04:37:15;;;;;;;12.00;7.47;;;;;;;11.23;100.00;100312.06;5011861;28;20182;-83
2023/06/02 04:39:41;;;;;;;12.80;7.57;;;;;;;11.22;100.00;100310.38;5011922;28;20202;-83
2023/06/02 04:42:07;;;;;;;10.77;7.67;;;;;;;11.33;100.00;100306.44;5018527;28;20568;-82
2023/06/02 04:44:34;;;;;;;9.97;6.67;;;;;;;11.31;100.00;100311.63;5006449;28;20182;-81
2023/06/02 04:46:59;;;;;;;11.67;7.30;;;;;;;11.38;100.00;100310.38;5003501;28;20179;-80
2023/06/02 04:49:24;;;;;;;9.93;7.37;;;;;;;11.39;100.00;100313.81;5011778;28;20190;-81
2023/06/02 04:51:50;;;;;;;9.23;6.37;;;;;;;11.52;100.00;100317.34;5017053;28;20308;-80
2023/06/02 04:54:15;;;;;;;10.30;7.00;;;;;;;11.60;100.00;100317.78;5011649;28;20187;-80
2023/06/02 04:56:41;;;;;;;7.47;6.77;;;;;;;11.78;100.00;100315.09;5012756;28;20181;-81
2023/06/02 04:59:06;;;;;;;11.87;7.23;;;;;;;11.74;100.00;100308.44;5012317;28;20540;-80
2023/06/02 05:01:32;;;;;;;9.17;7.17;;;;;;;11.70;100.00;100312.94;5014108;28;20222;-80
2023/06/02 05:03:58;;;;;;;12.67;7.20;;;;;;;11.72;100.00;100313.69;5016363;28;20179;-80
2023/06/02 05:06:23;;;;;;;10.33;6.37;;;;;;;11.75;100.00;100308.34;5012391;28;20241;-80
2023/06/02 05:08:50;;;;;;;12.03;7.07;;;;;;;11.74;100.00;100311.03;5012537;28;20214;-78
2023/06/02 05:11:15;;;;;;;9.53;6.67;;;;;;;11.94;100.00;100315.91;5004009;28;20582;-77
2023/06/02 05:13:41;;;;;;;11.07;6.77;;;;;;;12.02;100.00;100314.63;5018454;28;20183;-80
2023/06/02 05:16:06;;;;;;;9.57;7.20;;;;;;;11.88;100.00;100317.97;5012120;28;20182;-80
2023/06/02 05:18:32;;;;;;;12.90;6.37;;;;;;;11.84;100.00;100317.31;5011281;28;20286;-80
2023/06/02 05:20:58;;;;;;;11.07;7.37;;;;;;;11.90;100.00;100318.72;5008679;28;20251;-80
2023/06/02 05:23:23;;;;;;;9.90;6.97;;;;;;;11.87;100.00;100324.88;5011120;28;20551;-80
2023/06/02 05:25:49;;;;;;;12.40;6.40;;;;;;;11.81;100.00;100303.78;5012160;28;20861;-80
2023/06/02 05:28:15;;;;;;;9.30;6.60;;;;;;;11.76;100.00;100304.06;5011909;28;20614;-78
2023/06/02 05:30:40;;;;;;;10.87;6.73;;;;;;;11.75;100.00;100316.09;4993943;28;20237;-78
2023/06/02 05:33:06;;;;;;;7.03;5.87;;;;;;;12.02;100.00;100309.47;5022652;28;20577;-80
2023/06/02 05:35:31;;;;;;;8.67;6.07;;;;;;;12.18;100.00;100317.16;5011510;28;20186;-80
2023/06/02 05:37:56;;;;;;;11.77;6.37;;;;;;;12.06;100.00;100323.88;5011911;28;20183;-78
2023/06/02 05:40:22;;;;;;;6.67;5.60;;;;;;;11.92;100.00;100311.72;5004189;28;20294;-79
2023/06/02 05:42:47;;;;;;;7.80;5.60;;;;;;;12.12;100.00;100302.91;5024820;28;20655;-79
2023/06/02 05:45:12;;;;;;;7.63;6.50;;;;;;;12.32;100.00;100301.72;5011683;28;20461;-80
2023/06/02 05:47:38;;;;;;;9.40;5.87;;;;;;;12.30;100.00;100303.56;5012237;28;20296;-80
2023/06/02 05:50:03;;;;;;;11.57;6.00;;;;;;;12.30;100.00;100302.75;5006536;28;20185;-79
2023/06/02 05:52:29;;;;;;;14.03;6.83;;;;;;;12.72;100.00;100309.66;5008909;28;20300;-80
2023/06/02 05:54:54;;;;;;;8.60;5.73;;;;;;;12.91;100.00;100303.38;5010323;28;20186;-77
2023/06/02 05:57:20;;;;;;;9.83;5.50;;;;;;;12.88;100.00;100312.16;5011216;28;20630;-81
2023/06/02 05:59:46;;;;;;;11.33;6.37;;;;;;;12.79;100.00;100306.72;5010367;28;20252;-79
2023/06/02 06:02:12;;;;;;;12.33;6.30;;;;;;;13.06;100.00;100312.78;5002097;28;20712;-80
2023/06/02 06:04:37;;;;;;;8.80;5.50;;;;;;;12.98;100.00;100307.25;5011791;28;20189;-79
2023/06/02 06:07:02;;;;;;;9.77;5.97;;;;;;;12.91;100.00;100311.13;5011334;28;20210;-80
2023/06/02 06:09:28;;;;;;;7.83;5.70;;;;;;;12.99;100.00;100311.50;5011741;28;20194;-80
2023/06/02 06:11:53;;;;;;;7.20;4.67;;;;;;;12.93;100.00;100309.31;5015479;28;20291;-80
2023/06/02 06:14:18;;;;;;;8.33;5.03;;;;;;;12.97;100.00;100315.09;5012892;28;20210;-80
2023/06/02 06:16:44;;;;;;;8.37;6.13;;;;;;;12.73;100.00;100320.84;5011319;28;20328;-81
2023/06/02 06:19:10;;;;;;;8.03;5.50;;;;;;;12.77;100.00;100326.66;5011538;28;20190;-81
2023/06/02 06:21:36;;;;;;;13.13;6.17;;;;;;;12.70;100.00;100315.84;4991427;28;20232;-81
2023/06/02 06:24:05;;;;;;;7.03;5.63;;;;;;;12.95;100.00;100320.38;5009966;28;20555;-79
2023/06/02 06:26:30;;;;;;;10.50;5.63;;;;;;;13.14;100.00;100316.66;4997810;28;20181;-80
2023/06/02 06:28:56;;;;;;;8.00;5.47;;;;;;;13.37;100.00;100322.97;5006204;28;20179;-83
2023/06/02 06:31:21;;;;;;;11.70;5.77;;;;;;;13.49;100.00;100329.97;5005107;28;20680;-80
2023/06/02 06:33:46;;;;;;;11.63;5.73;;;;;;;13.33;100.00;100331.84;5017218;28;20293;-78
2023/06/02 06:36:12;;;;;;;7.13;5.17;;;;;;;13.56;100.00;100328.66;5014296;28;20301;-78
2023/06/02 06:38:38;;;;;;;8.40;5.53;;;;;;;13.57;100.00;100334.69;5015445;28;20179;-79
2023/06/02 06:41:03;;;;;;;8.30;5.63;;;;;;;13.54;100.00;100329.69;5006663;28;20222;-80
2023/06/02 06:43:28;;;;;;;8.70;5.70;;;;;;;13.81;99.15;100334.84;5022299;28;20270;-82
2023/06/02 06:45:54;;;;;;;6.77;4.53;;;;;;;15.53;90.39;100331.06;5014596;28;20533;-80
2023/06/02 06:48:19;;;;;;;6.10;5.03;;;;;;;16.31;82.55;100331.50;5015156;28;20190;-80
2023/06/02 06:50:44;;;;;;;6.00;4.23;;;;;;;16.29;77.92;100341.16;5008070;28;20226;-84
2023/06/02 06:53:11;;;;;;;5.37;4.40;;;;;;;16.08;81.16;100335.81;5012307;28;20175;-83
2023/06/02 06:55:36;;;;;;;6.07;4.83;;;;;;;15.86;82.99;100346.94;5025121;28;20266;-84
2023/06/02 06:58:01;;;;;;;7.37;4.27;;;;;;;16.09;86.12;100340.88;5013010;28;20388;-87
2023/06/02 07:00:27;;;;;;;7.47;4.57;;;;;;;16.93;80.49;100337.22;4994870;28;20309;-83
2023/06/02 07:02:52;;;;;;;4.83;4.20;;;;;;;18.94;61.41;100336.59;5000520;28;20653;-82
2023/06/02 07:05:19;;;;;;;7.93;4.13;;;;;;;20.22;52.84;100328.81;5014531;28;20190;-85
2023/06/02 07:07:46;;;;;;;7.77;4.17;;;;;;;21.16;46.97;100333.19;5013393;28;20629;-85
2023/06/02 07:10:14;;;;;;;6.80;3.60;;;;;;;20.92;47.35;100333.72;5004356;28;20193;-82
2023/06/02 07:12:39;;;;;;;5.83;4.07;;;;;;;20.23;49.69;100336.56;5018376;28;20226;-87
2023/06/02 07:15:05;;;;;;;5.10;3.73;;;;;;;18.87;53.88;100341.44;5004973;28;20209;-81
2023/06/02 07:17:30;;;;;;;4.77;3.80;;;;;;;21.15;50.57;100336.75;5010836;28;20186;-80
2023/06/02 07:19:56;;;;;;;6.87;4.27;;;;;;;22.72;43.88;100343.22;5004700;28;20285;-81
2023/06/02 07:22:21;;;;;;;8.43;3.77;;;;;;;23.18;39.87;100346.38;5008638;28;20222;-84
2023/06/02 07:24:46;;;;;;;5.30;3.53;;;;;;;22.62;42.64;100345.16;5010966;28;20191;-88
2023/06/02 07:27:12;;;;;;;9.17;4.17;;;;;;;21.38;43.58;100352.84;5008411;28;20541;-82
2023/06/02 07:29:38;;;;;;;6.67;4.10;;;;;;;21.36;42.90;100354.81;5008861;28;20591;-85
2023/06/02 07:32:03;;;;;;;9.87;4.07;;;;;;;22.44;42.79;100346.06;4974404;28;20333;-85
2023/06/02 07:34:28;;;;;;;6.53;3.67;;;;;;;22.36;41.55;100345.97;5004378;28;20205;-87
2023/06/02 07:36:54;;;;;;;10.30;4.47;;;;;;;22.76;39.92;100351.59;5012740;28;20193;-86
2023/06/02 07:39:19;;;;;;;6.70;3.77;;;;;;;24.37;38.10;100353.97;5014291;28;20344;-81
2023/06/02 07:41:44;;;;;;;6.75;3.58;;;;;;;25.56;36.08;100346.03;5017122;28;20633;-80
2023/06/02 07:44:09;;;;;;;6.72;3.78;;;;;;;25.98;34.61;100343.09;5015664;28;20970;-80
2023/06/02 07:46:35;;;;;;;5.65;3.13;;;;;;;26.97;33.21;100355.22;5013762;28;20186;-81
2023/06/02 07:49:01;;;;;;;7.53;3.85;;;;;;;27.29;31.50;100358.41;5013957;28;20182;-84
2023/06/02 07:51:27;;;;;;;8.32;3.97;;;;;;;27.31;31.45;100353.75;5005613;28;20249;-84
2023/06/02 07:53:52;;;;;;;7.05;3.58;;;;;;;25.21;33.25;100360.59;5012640;28;20229;-83
2023/06/02 07:56:17;;;;;;;7.47;3.50;;;;;;;22.96;37.22;100360.88;5012143;28;20202;-82
2023/06/02 07:58:45;;;;;;;5.25;3.05;;;;;;;23.74;36.83;100352.84;5014001;28;20187;-79
2023/06/02 08:01:10;;;;;;;5.57;3.72;;;;;;;23.02;38.11;100343.66;5005736;28;20630;-77
2023/06/02 08:03:35;;;;;;;7.93;3.47;;;;;;;24.31;36.72;100344.13;5015856;28;20217;-84
2023/06/02 08:06:01;;;;;;;8.15;4.28;;;;;;;24.13;37.00;100358.28;5013178;28;20186;-60
2023/06/02 08:08:26;;;;;;;5.47;3.45;;;;;;;22.87;37.68;100356.56;5013552;28;20206;-60
2023/06/02 08:10:51;;;;;;;9.23;4.10;;;;;;;22.17;39.25;100350.44;5009705;28;20249;-61
2023/06/02 08:13:16;;;;;;;10.30;3.72;;;;;;;23.13;38.41;100347.81;5016939;28;20685;-60
2023/06/02 08:15:42;;;;;;;4.22;3.03;;;;;;;22.70;38.41;100355.69;5013182;28;20167;-60
2023/06/02 08:18:15;;;;;;;7.38;3.92;;;;;;;23.07;37.59;100348.44;5012978;28;20193;-62
2023/06/02 08:20:43;;;;;;;7.60;3.05;;;;;;;24.38;35.90;100349.53;5001661;28;20280;-62
2023/06/02 08:23:08;;;;;;;5.28;3.30;;;;;;;25.53;34.76;100341.13;5003554;28;20186;-59
2023/06/02 08:25:37;;;;;;;9.88;3.58;;;;;;;24.19;35.30;100341.03;5012712;28;20186;-58
2023/06/02 08:28:04;;;;;;;5.75;3.60;;;;;;;23.36;36.09;100337.56;5011887;28;20649;-58
2023/06/02 08:30:29;;;;;;;6.43;3.50;;;;;;;22.64;37.54;100336.16;4989657;28;20226;-61
2023/06/02 08:32:55;;;;;;;7.07;3.78;;;;;;;21.86;39.03;100331.72;5020217;28;20194;-60
2023/06/02 08:35:20;;;;;;;5.32;3.22;;;;;;;22.27;38.83;100333.81;5010870;28;20587;-59
2023/06/02 08:37:45;;;;;;;9.20;4.50;;;;;;;22.85;38.09;100327.06;5012962;28;20179;-58
2023/06/02 08:40:11;;;;;;;5.28;3.70;;;;;;;22.55;37.98;100318.72;4999295;28;20210;-59
2023/06/02 08:42:37;;;;;;;5.35;3.75;;;;;;;23.09;37.48;100315.81;5011525;28;20236;-59
2023/06/02 08:45:05;;;;;;;6.28;3.40;;;;;;;24.28;36.49;100323.44;5012635;28;20187;-58
2023/06/02 08:47:33;;;;;;;6.97;3.58;;;;;;;24.36;34.97;100314.72;5011361;28;20191;-60
2023/06/02 08:50:01;;;;;;;7.18;4.13;;;;;;;24.28;34.91;100323.44;5012665;28;20270;-58
2023/06/02 08:52:28;;;;;;;6.93;3.72;;;;;;;21.75;39.27;100330.97;4993688;28;20266;-58
2023/06/02 08:54:55;;;;;;;11.38;4.28;;;;;;;23.05;38.60;100315.31;5010725;28;20590;-58
2023/06/02 08:57:22;;;;;;;5.00;3.38;;;;;;;22.73;37.66;100306.34;5011683;28;20182;-59
2023/06/02 08:59:48;;;;;;;9.25;3.70;;;;;;;23.18;37.29;100309.66;5011143;28;20217;-58
2023/06/02 09:02:15;;;;;;;4.80;3.25;;;;;;;23.24;37.48;100304.72;5002875;28;20226;-59
2023/06/02 09:04:40;;;;;;;5.15;3.40;;;;;;;23.75;35.97;100309.84;5010994;28;20190;-59
2023/06/02 09:07:11;;;;;;;8.73;3.97;;;;;;;23.05;37.14;100307.44;5012347;28;20228;-59
2023/06/02 09:09:44;;;;;;;7.60;3.25;;;;;;;22.75;37.11;100313.25;5012482;28;20206;-59
2023/06/02 09:12:10;;;;;;;8.85;3.70;;;;;;;22.60;37.38;100319.09;5005852;28;20801;-59
2023/06/02 09:14:36;;;;;;;3.80;3.13;;;;;;;23.01;36.82;100321.06;5010832;28;20194;-58
2023/06/02 09:17:02;;;;;;;5.00;3.28;;;;;;;23.41;37.25;100316.09;5011858;28;20696;-59
2023/06/02 09:19:48;;;;;;;6.18;3.45;;;;;;;23.98;34.75;100313.47;5006253;28;20223;-58
2023/06/02 09:22:13;;;;;;;5.75;3.67;;;;;;;24.92;33.43;100302.34;5000023;28;20778;-58
2023/06/02 09:24:39;;;;;;;5.70;3.47;;;;;;;25.11;33.06;100319.50;5012574;28;20210;-58
2023/06/02 09:27:04;;;;;;;7.88;4.13;;;;;;;25.41;32.91;100321.47;5011802;28;20191;-59
2023/06/02 09:29:30;;;;;;;7.43;3.50;;;;;;;24.75;33.52;100320.00;4999109;28;20643;-61
2023/06/02 09:31:58;;;;;;;6.15;3.92;;;;;;;24.19;34.21;100322.63;5006998;28;20312;-60
2023/06/02 09:34:32;;;;;;;3.85;2.88;;;;;;;24.77;33.37;100317.19;5011073;28;20284;-59
2023/06/02 09:37:07;;;;;;;5.63;3.22;;;;;;;23.78;34.84;100317.41;5023353;28;20575;-60
2023/06/02 09:39:33;;;;;;;5.32;3.30;;;;;;;24.52;34.25;100317.28;5010899;28;20591;-60
2023/06/02 09:42:00;;;;;;;9.98;3.25;;;;;;;26.08;32.68;100304.13;5003687;28;20587;-59
2023/06/02 09:44:26;;;;;;;10.55;3.28;;;;;;;25.28;32.80;100312.31;5010651;28;20194;-59
2023/06/02 09:46:52;;;;;;;13.10;3.50;;;;;;;23.17;36.13;100308.00;5019246;28;20193;-58
2023/06/02 09:49:18;;;;;;;6.03;3.30;;;;;;;24.49;34.91;100302.66;5011710;28;20186;-59
2023/06/02 09:51:43;;;;;;;7.25;3.15;;;;;;;26.14;32.11;100302.59;5010085;28;20303;-60
2023/06/02 09:54:09;;;;;;;5.75;3.28;;;;;;;27.42;30.29;100302.28;5009553;28;20191;-59
2023/06/02 09:56:38;;;;;;;6.43;3.17;;;;;;;27.25;29.56;100301.69;5010559;28;20190;-59
2023/06/02 09:59:08;;;;;;;4.55;2.88;;;;;;;26.08;30.32;100314.69;5010353;28;20179;-60
2023/06/02 10:01:34;;;;;;;10.60;3.20;;;;;;;24.98;32.94;100298.19;5000804;28;20319;-59
2023/06/02 10:04:01;;;;;;;8.10;2.78;;;;;;;22.99;35.72;100310.72;5002460;28;20184;-61
2023/06/02 10:07:06;;;;;;;5.72;3.03;;;;;;;22.32;36.29;100310.56;5009939;28;20213;-60
2023/06/02 10:09:59;;;;;;;5.07;2.65;;;;;;;22.73;36.67;100306.34;5010090;28;20175;-60
2023/06/02 10:12:32;;;;;;;6.07;2.80;;;;;;;23.62;36.20;100308.53;5008079;28;20298;-58
2023/06/02 10:15:18;;;;;;;3.80;2.55;;;;;;;24.46;34.22;100299.53;5010043;28;20652;-62
2023/06/02 10:18:02;;;;;;;4.68;2.88;;;;;;;24.58;33.82;100303.44;5011446;28;20209;-59
2023/06/02 10:20:41;;;;;;;8.93;3.20;;;;;;;25.77;32.66;100305.06;4998208;28;20547;-59
2023/06/02 10:23:19;;;;;;;5.95;2.78;;;;;;;27.39;30.40;100311.38;4994501;28;20179;-60
2023/06/02 10:25:56;;;;;;;5.13;2.50;;;;;;;28.58;30.74;100309.78;5009318;28;20190;-60
2023/06/02 10:28:22;;;;;;;7.10;2.70;;;;;;;28.25;28.61;100313.06;5009534;28;20187;-61
2023/06/02 10:30:47;;;;;;;5.88;2.70;;;;;;;27.74;29.24;100310.69;4991014;28;20236;-60
2023/06/02 10:33:13;;;;;;;5.22;2.80;;;;;;;25.87;30.95;100307.44;5020324;28;20171;-59
2023/06/02 10:35:59;;;;;;;7.22;2.75;;;;;;;23.82;34.10;100298.50;5004340;28;20185;-60
2023/06/02 10:38:31;;;;;;;10.45;3.20;;;;;;;23.79;34.89;100300.66;5009028;28;20198;-59
2023/06/02 10:40:56;;;;;;;5.55;2.60;;;;;;;23.58;37.37;100296.72;5008335;28;20233;-59
2023/06/02 10:43:22;;;;;;;4.50;2.42;;;;;;;22.96;36.55;100297.09;5019062;28;20669;-59
2023/06/02 10:45:48;;;;;;;5.97;2.33;;;;;;;21.86;38.36;100295.88;5003945;28;20198;-59
2023/06/02 10:48:39;;;;;;;7.45;2.70;;;;;;;20.58;41.98;100292.44;5006520;28;20191;-60
2023/06/02 10:51:07;;;;;;;4.33;2.83;;;;;;;20.26;43.07;100297.06;4993717;28;20241;-63
2023/06/02 10:53:32;;;;;;;4.47;2.43;;;;;;;19.95;45.16;100279.00;5020358;28;20673;-59
2023/06/02 10:56:40;;;;;;;9.63;3.50;;;;;;;19.40;48.45;100291.78;5002974;28;20634;-59
2023/06/02 10:59:07;;;;;;;7.10;3.33;;;;;;;19.30;49.70;100287.38;4998371;28;20203;-61
2023/06/02 11:01:49;;;;;;;6.17;2.70;;;;;;;19.58;50.19;100282.31;4980892;28;20233;-59
2023/06/02 11:04:31;;;;;;;7.57;2.63;;;;;;;20.28;49.14;100281.25;5007437;28;20182;-59
2023/06/02 11:07:35;;;;;;;7.23;2.90;;;;;;;19.43;47.98;100288.91;5018706;28;20597;-59
2023/06/02 11:10:00;;;;;;;6.27;2.70;;;;;;;19.00;50.92;100276.09;4969635;28;20191;-61
2023/06/02 11:12:51;;;;;;;4.73;2.63;;;;;;;19.20;50.48;100286.53;4959452;28;20235;-60
2023/06/02 11:15:20;;;;;;;16.30;3.33;;;;;;;19.46;51.23;100279.03;4959395;28;20200;-60
2023/06/02 11:17:47;;;;;;;4.13;2.97;;;;;;;19.55;50.75;100282.59;4968550;28;20497;-61
2023/06/02 11:20:13;;;;;;;7.40;3.40;;;;;;;19.30;50.14;100292.59;4944367;28;20200;-61